createdAt,value
2018-09-22T00:02:24.231Z,12.80
2018-09-22T00:04:52.338Z,12.80
2018-09-22T00:07:20.455Z,12.70
2018-09-22T00:09:48.640Z,12.80
2018-09-22T00:12:16.757Z,12.70
2018-09-22T00:14:44.870Z,12.80
2018-09-22T00:17:13.005Z,12.80
2018-09-22T00:19:41.181Z,12.90
2018-09-22T00:22:09.281Z,12.90
2018-09-22T00:24:37.394Z,12.90
2018-09-22T00:27:05.516Z,12.90
2018-09-22T00:29:33.635Z,12.90
2018-09-22T00:32:01.749Z,12.90
2018-09-22T00:34:29.844Z,12.90
2018-09-22T00:36:57.955Z,12.90
2018-09-22T00:39:26.066Z,12.90
2018-09-22T00:41:54.241Z,12.90
2018-09-22T00:44:22.379Z,12.90
2018-09-22T00:46:50.518Z,12.80
2018-09-22T00:49:18.640Z,12.80
2018-09-22T00:51:46.747Z,12.70
2018-09-22T00:54:14.880Z,12.70
2018-09-22T00:56:42.983Z,12.80
2018-09-22T00:59:11.120Z,12.70
2018-09-22T01:01:39.252Z,12.70
2018-09-22T01:04:07.386Z,12.70
2018-09-22T01:06:35.508Z,12.80
2018-09-22T01:09:04.480Z,12.70
2018-09-22T01:11:32.591Z,12.70
2018-09-22T01:14:00.716Z,12.70
2018-09-22T01:16:28.831Z,12.70
2018-09-22T01:18:56.982Z,12.60
2018-09-22T01:21:25.070Z,12.60
2018-09-22T01:23:53.209Z,12.60
2018-09-22T01:26:21.323Z,12.60
2018-09-22T01:28:49.655Z,12.50
2018-09-22T01:31:17.792Z,12.50
2018-09-22T01:33:45.914Z,12.50
2018-09-22T01:36:14.039Z,12.50
2018-09-22T01:38:42.183Z,12.50
2018-09-22T01:41:10.313Z,12.50
2018-09-22T01:43:38.479Z,12.60
2018-09-22T01:46:06.571Z,12.50
2018-09-22T01:48:34.728Z,12.50
2018-09-22T01:51:02.841Z,12.50
2018-09-22T01:53:30.984Z,12.50
2018-09-22T01:55:59.119Z,12.50
2018-09-22T01:58:27.333Z,12.50
2018-09-22T02:00:55.450Z,12.60
2018-09-22T02:03:23.601Z,12.60
2018-09-22T02:05:51.707Z,12.60
2018-09-22T02:08:19.850Z,12.60
2018-09-22T02:10:47.990Z,12.60
2018-09-22T02:13:16.160Z,12.70
2018-09-22T02:15:44.560Z,12.70
2018-09-22T02:18:12.682Z,12.60
2018-09-22T02:20:40.793Z,12.60
2018-09-22T02:23:08.958Z,12.60
2018-09-22T02:25:37.093Z,12.70
2018-09-22T02:28:05.239Z,12.60
2018-09-22T02:30:33.368Z,12.70
2018-09-22T02:33:01.501Z,12.70
2018-09-22T02:35:29.616Z,12.60
2018-09-22T02:37:57.769Z,12.60
2018-09-22T02:40:25.885Z,12.60
2018-09-22T02:42:54.035Z,12.60
2018-09-22T02:45:22.182Z,12.60
2018-09-22T02:47:50.295Z,12.60
2018-09-22T02:50:18.409Z,12.60
2018-09-22T02:52:46.518Z,12.60
2018-09-22T02:55:14.647Z,12.60
2018-09-22T02:57:42.929Z,12.70
2018-09-22T03:00:11.047Z,12.60
2018-09-22T03:02:39.162Z,12.60
2018-09-22T03:05:07.278Z,12.60
2018-09-22T03:07:35.379Z,12.60
2018-09-22T03:10:03.577Z,12.70
2018-09-22T03:12:31.644Z,12.70
2018-09-22T03:14:59.775Z,12.70
2018-09-22T03:17:27.908Z,12.70
2018-09-22T03:19:56.032Z,12.70
2018-09-22T03:22:24.231Z,12.70
2018-09-22T03:24:52.402Z,12.60
2018-09-22T03:27:20.530Z,12.60
2018-09-22T03:29:48.668Z,12.60
2018-09-22T03:32:16.829Z,12.60
2018-09-22T03:34:44.948Z,12.50
2018-09-22T03:37:13.047Z,12.50
2018-09-22T03:39:41.162Z,12.40
2018-09-22T03:42:09.270Z,12.50
2018-09-22T03:44:37.418Z,12.40
2018-09-22T03:47:05.788Z,12.50
2018-09-22T03:49:33.899Z,12.40
2018-09-22T03:52:02.082Z,12.40
2018-09-22T03:54:30.190Z,12.50
2018-09-22T03:56:58.314Z,12.50
2018-09-22T03:59:26.469Z,12.40
2018-09-22T04:01:54.778Z,12.40
2018-09-22T04:04:22.941Z,12.50
2018-09-22T04:06:51.047Z,12.50
2018-09-22T04:09:19.176Z,12.50
2018-09-22T04:11:47.303Z,12.40
2018-09-22T04:14:15.423Z,12.50
2018-09-22T04:16:43.567Z,12.50
2018-09-22T04:19:11.796Z,12.50
2018-09-22T04:21:39.926Z,12.50
2018-09-22T04:24:23.554Z,12.40
2018-09-22T04:26:52.228Z,12.40
2018-09-22T04:29:21.406Z,12.40
2018-09-22T04:31:49.866Z,12.40
2018-09-22T04:34:18.471Z,12.40
2018-09-22T04:36:46.594Z,12.50
2018-09-22T04:39:14.715Z,12.40
2018-09-22T04:41:44.123Z,12.50
2018-09-22T04:44:12.246Z,12.50
2018-09-22T04:46:40.383Z,12.60
2018-09-22T04:49:08.516Z,12.60
2018-09-22T04:51:36.637Z,12.50
2018-09-22T04:54:04.781Z,12.50
2018-09-22T04:56:33.036Z,12.60
2018-09-22T04:59:01.140Z,12.50
2018-09-22T05:01:29.286Z,12.40
2018-09-22T05:03:57.418Z,12.40
2018-09-22T05:06:25.534Z,12.40
2018-09-22T05:08:53.702Z,12.40
2018-09-22T05:11:21.859Z,12.30
2018-09-22T05:13:49.979Z,12.40
2018-09-22T05:16:18.124Z,12.50
2018-09-22T05:18:46.267Z,12.40
2018-09-22T05:21:14.398Z,12.40
2018-09-22T05:23:42.543Z,12.40
2018-09-22T05:26:10.650Z,12.40
2018-09-22T05:28:38.777Z,12.40
2018-09-22T05:31:06.903Z,12.40
2018-09-22T05:33:35.118Z,12.40
2018-09-22T05:36:03.161Z,12.40
2018-09-22T05:38:31.273Z,12.50
2018-09-22T05:40:59.398Z,12.40
2018-09-22T05:43:27.522Z,12.50
2018-09-22T05:45:55.638Z,12.60
2018-09-22T05:48:23.744Z,12.70
2018-09-22T05:50:51.947Z,12.70
2018-09-22T05:53:20.093Z,12.90
2018-09-22T05:55:48.217Z,12.90
2018-09-22T05:58:16.388Z,12.90
2018-09-22T06:00:44.446Z,13.00
2018-09-22T06:03:12.579Z,12.90
2018-09-22T06:05:40.703Z,12.90
2018-09-22T06:08:08.825Z,12.90
2018-09-22T06:10:37.283Z,12.90
2018-09-22T06:13:05.505Z,13.00
2018-09-22T06:15:33.629Z,12.90
2018-09-22T06:18:01.780Z,13.00
2018-09-22T06:20:30.022Z,13.10
2018-09-22T06:22:58.198Z,13.10
2018-09-22T06:25:26.306Z,13.30
2018-09-22T06:27:54.472Z,13.10
2018-09-22T06:30:22.691Z,13.20
2018-09-22T06:32:50.802Z,13.10
2018-09-22T06:35:18.931Z,13.20
2018-09-22T06:37:48.107Z,13.20
2018-09-22T06:40:16.226Z,13.30
2018-09-22T06:42:44.392Z,13.30
2018-09-22T06:45:12.520Z,13.30
2018-09-22T06:47:40.668Z,13.40
2018-09-22T06:50:08.804Z,13.40
2018-09-22T06:52:36.918Z,13.50
2018-09-22T06:55:05.066Z,13.60
2018-09-22T06:57:33.186Z,13.50
2018-09-22T07:00:01.312Z,13.50
2018-09-22T07:02:29.674Z,13.50
2018-09-22T07:04:57.782Z,13.50
2018-09-22T07:07:25.915Z,13.60
2018-09-22T07:09:54.055Z,13.60
2018-09-22T07:12:22.183Z,13.70
2018-09-22T07:14:50.316Z,13.70
2018-09-22T07:17:19.246Z,13.80
2018-09-22T07:19:47.362Z,13.90
2018-09-22T07:22:21.137Z,13.90
2018-09-22T07:24:49.247Z,13.90
2018-09-22T07:27:17.390Z,13.80
2018-09-22T07:29:45.487Z,13.80
2018-09-22T07:32:13.614Z,13.80
2018-09-22T07:34:41.745Z,14.00
2018-09-22T07:37:09.893Z,14.10
2018-09-22T07:39:38.043Z,14.10
2018-09-22T07:42:06.187Z,14.20
2018-09-22T07:44:34.331Z,14.20
2018-09-22T07:47:02.615Z,14.30
2018-09-22T07:49:30.722Z,14.30
2018-09-22T07:51:58.868Z,14.40
2018-09-22T07:54:26.970Z,14.40
2018-09-22T07:56:55.134Z,14.50
2018-09-22T07:59:23.275Z,14.60
2018-09-22T08:01:51.413Z,14.50
2018-09-22T08:04:19.550Z,14.70
2018-09-22T08:06:47.691Z,14.80
2018-09-22T08:09:15.811Z,14.70
2018-09-22T08:11:44.008Z,14.80
2018-09-22T08:14:12.075Z,14.90
2018-09-22T08:16:40.215Z,15.00
2018-09-22T08:19:08.348Z,14.90
2018-09-22T08:21:36.467Z,14.80
2018-09-22T08:24:04.622Z,14.60
2018-09-22T08:26:32.773Z,14.60
2018-09-22T08:29:00.929Z,14.60
2018-09-22T08:31:29.054Z,14.60
2018-09-22T08:33:57.262Z,14.70
2018-09-22T08:36:25.660Z,14.80
2018-09-22T08:38:53.660Z,15.00
2018-09-22T08:41:21.791Z,15.00
2018-09-22T08:43:49.986Z,15.10
2018-09-22T08:46:18.042Z,15.10
2018-09-22T08:48:46.176Z,15.00
2018-09-22T08:51:14.402Z,15.00
2018-09-22T08:53:42.568Z,15.00
2018-09-22T08:56:10.738Z,15.00
2018-09-22T08:58:38.906Z,15.20
2018-09-22T09:01:07.039Z,15.20
2018-09-22T09:03:35.162Z,15.30
2018-09-22T09:06:03.280Z,15.40
2018-09-22T09:08:31.502Z,15.60
2018-09-22T09:10:59.628Z,15.60
2018-09-22T09:13:27.747Z,15.70
2018-09-22T09:15:55.880Z,15.60
2018-09-22T09:18:24.012Z,15.60
2018-09-22T09:20:52.171Z,15.70
2018-09-22T09:23:20.287Z,15.60
2018-09-22T09:25:48.413Z,15.70
2018-09-22T09:28:16.550Z,15.60
2018-09-22T09:30:44.651Z,15.70
2018-09-22T09:33:12.835Z,15.70
2018-09-22T09:35:40.959Z,15.90
2018-09-22T09:38:09.075Z,16.00
2018-09-22T09:40:37.199Z,16.10
2018-09-22T09:43:05.341Z,16.40
2018-09-22T09:45:33.479Z,16.50
2018-09-22T09:48:01.628Z,16.70
2018-09-22T09:50:29.750Z,16.80
2018-09-22T09:52:57.901Z,16.80
2018-09-22T09:55:26.008Z,16.70
2018-09-22T09:57:54.149Z,16.70
2018-09-22T10:00:27.892Z,16.90
2018-09-22T10:02:56.191Z,17.00
2018-09-22T10:05:24.367Z,16.80
2018-09-22T10:07:52.539Z,16.60
2018-09-22T10:10:20.667Z,16.40
2018-09-22T10:12:48.832Z,16.30
2018-09-22T10:15:17.005Z,16.40
2018-09-22T10:17:45.439Z,16.40
2018-09-22T10:20:13.681Z,16.40
2018-09-22T10:22:41.739Z,16.50
2018-09-22T10:25:09.862Z,16.30
2018-09-22T10:27:37.998Z,16.30
2018-09-22T10:30:07.080Z,16.50
2018-09-22T10:32:35.255Z,16.80
2018-09-22T10:35:03.394Z,16.90
2018-09-22T10:37:31.544Z,16.80
2018-09-22T10:39:59.698Z,16.80
2018-09-22T10:42:27.887Z,16.90
2018-09-22T10:44:56.011Z,17.00
2018-09-22T10:47:24.137Z,17.00
2018-09-22T10:49:52.367Z,17.00
2018-09-22T10:52:20.487Z,17.10
2018-09-22T10:54:48.672Z,17.20
2018-09-22T10:57:16.887Z,17.30
2018-09-22T10:59:45.036Z,17.50
2018-09-22T11:02:13.216Z,17.40
2018-09-22T11:04:41.349Z,17.20
2018-09-22T11:07:09.543Z,17.40
2018-09-22T11:09:37.693Z,17.00
2018-09-22T11:12:05.839Z,17.20
2018-09-22T11:14:34.886Z,17.40
2018-09-22T11:17:03.194Z,17.40
2018-09-22T11:19:31.415Z,17.40
2018-09-22T11:21:59.572Z,17.60
2018-09-22T11:24:27.692Z,17.60
2018-09-22T11:26:55.789Z,17.20
2018-09-22T11:29:23.960Z,17.10
2018-09-22T11:31:52.117Z,17.00
2018-09-22T11:34:20.269Z,17.00
2018-09-22T11:36:48.424Z,17.00
2018-09-22T11:39:16.548Z,16.90
2018-09-22T11:41:44.644Z,16.90
2018-09-22T11:44:12.781Z,16.80
2018-09-22T11:46:40.892Z,17.00
2018-09-22T11:49:09.025Z,16.90
2018-09-22T11:51:37.121Z,16.70
2018-09-22T11:54:05.255Z,16.70
2018-09-22T11:56:33.555Z,16.90
2018-09-22T11:59:01.610Z,16.90
2018-09-22T12:01:29.800Z,17.10
2018-09-22T12:03:57.998Z,17.20
2018-09-22T12:06:26.246Z,17.20
2018-09-22T12:08:54.325Z,17.10
2018-09-22T12:11:22.485Z,17.10
2018-09-22T12:13:50.611Z,17.10
2018-09-22T12:16:18.728Z,17.20
2018-09-22T12:18:46.931Z,17.30
2018-09-22T12:21:15.076Z,17.40
2018-09-22T12:23:43.161Z,17.50
2018-09-22T12:26:11.297Z,17.30
2018-09-22T12:28:39.450Z,17.50
2018-09-22T12:31:07.578Z,17.60
2018-09-22T12:33:35.742Z,17.40
2018-09-22T12:36:03.860Z,17.40
2018-09-22T12:38:32.003Z,17.40
2018-09-22T12:41:00.150Z,17.20
2018-09-22T12:43:28.263Z,17.00
2018-09-22T12:45:56.611Z,17.10
2018-09-22T12:48:24.736Z,17.00
2018-09-22T12:50:52.920Z,17.10
2018-09-22T12:53:21.096Z,17.30
2018-09-22T12:55:49.247Z,17.40
2018-09-22T12:58:17.386Z,17.50
2018-09-22T13:00:46.243Z,17.40
2018-09-22T13:03:14.606Z,17.10
2018-09-22T13:05:42.744Z,17.10
2018-09-22T13:08:10.866Z,17.10
2018-09-22T13:10:39.002Z,17.20
2018-09-22T13:13:07.136Z,17.00
2018-09-22T13:15:35.667Z,17.00
2018-09-22T13:18:03.778Z,17.20
2018-09-22T13:20:31.898Z,17.40
2018-09-22T13:23:00.035Z,17.60
2018-09-22T13:25:28.158Z,17.50
2018-09-22T13:27:56.298Z,17.40
2018-09-22T13:30:24.434Z,17.10
2018-09-22T13:32:52.547Z,17.10
2018-09-22T13:35:20.674Z,17.00
2018-09-22T13:37:48.812Z,16.90
2018-09-22T13:40:16.923Z,17.00
2018-09-22T13:42:45.030Z,17.00
2018-09-22T13:45:13.166Z,17.00
2018-09-22T13:47:41.358Z,16.90
2018-09-22T13:50:09.500Z,17.00
2018-09-22T13:52:37.628Z,17.10
2018-09-22T13:55:06.061Z,17.20
2018-09-22T13:57:34.196Z,17.20
2018-09-22T14:00:02.389Z,17.30
2018-09-22T14:02:30.541Z,17.50
2018-09-22T14:04:58.688Z,17.50
2018-09-22T14:07:26.810Z,17.30
2018-09-22T14:09:54.971Z,17.20
2018-09-22T14:12:23.096Z,17.30
2018-09-22T14:14:51.191Z,17.30
2018-09-22T14:17:19.326Z,17.40
2018-09-22T14:19:47.473Z,17.40
2018-09-22T14:22:15.623Z,17.30
2018-09-22T14:24:43.751Z,17.20
2018-09-22T14:27:11.915Z,17.30
2018-09-22T14:29:40.048Z,17.30
2018-09-22T14:32:08.199Z,17.40
2018-09-22T14:34:36.414Z,17.50
2018-09-22T14:37:04.568Z,17.60
2018-09-22T14:39:32.716Z,17.50
2018-09-22T14:42:00.833Z,17.50
2018-09-22T14:44:28.971Z,17.40
2018-09-22T14:46:57.117Z,17.40
2018-09-22T14:49:25.247Z,17.50
2018-09-22T14:51:53.406Z,17.40
2018-09-22T14:54:21.571Z,17.30
2018-09-22T14:56:50.070Z,17.30
2018-09-22T14:59:18.182Z,17.30
2018-09-22T15:01:46.281Z,17.30
2018-09-22T15:04:14.436Z,17.20
2018-09-22T15:06:42.700Z,17.10
2018-09-22T15:09:10.808Z,17.10
2018-09-22T15:11:38.950Z,17.10
2018-09-22T15:14:07.139Z,17.10
2018-09-22T15:16:35.259Z,17.10
2018-09-22T15:19:03.369Z,17.20
2018-09-22T15:21:31.505Z,17.30
2018-09-22T15:23:59.608Z,17.10
2018-09-22T15:26:27.753Z,17.20
2018-09-22T15:28:55.888Z,17.20
2018-09-22T15:31:24.003Z,17.30
2018-09-22T15:33:52.187Z,17.30
2018-09-22T15:36:20.363Z,17.30
2018-09-22T15:38:48.484Z,17.30
2018-09-22T15:41:16.603Z,17.40
2018-09-22T15:43:44.726Z,17.50
2018-09-22T15:46:12.868Z,17.60
2018-09-22T15:48:40.992Z,17.60
2018-09-22T15:51:09.113Z,17.60
2018-09-22T15:53:37.235Z,17.60
2018-09-22T15:56:05.363Z,17.60
2018-09-22T15:58:33.499Z,17.70
2018-09-22T16:01:01.675Z,17.80
2018-09-22T16:03:29.797Z,17.70
2018-09-22T16:05:57.911Z,17.70
2018-09-22T16:08:26.039Z,17.60
2018-09-22T16:10:54.169Z,17.60
2018-09-22T16:13:22.299Z,17.50
2018-09-22T16:15:50.448Z,17.50
2018-09-22T16:18:18.564Z,17.40
2018-09-22T16:20:46.668Z,17.20
2018-09-22T16:23:14.810Z,17.20
2018-09-22T16:25:42.939Z,17.40
2018-09-22T16:28:11.075Z,17.30
2018-09-22T16:30:39.216Z,17.20
2018-09-22T16:33:07.370Z,17.00
2018-09-22T16:35:35.483Z,16.60
2018-09-22T16:38:03.612Z,16.10
2018-09-22T16:40:31.808Z,15.90
2018-09-22T16:42:59.950Z,15.90
2018-09-22T16:45:28.104Z,15.70
2018-09-22T16:47:56.244Z,15.60
2018-09-22T16:50:24.381Z,15.40
2018-09-22T16:52:52.800Z,15.10
2018-09-22T16:55:20.953Z,15.00
2018-09-22T16:57:49.113Z,15.00
2018-09-22T17:00:17.244Z,14.90
2018-09-22T17:02:45.377Z,15.00
2018-09-22T17:05:13.478Z,14.90
2018-09-22T17:07:41.618Z,15.10
2018-09-22T17:10:09.730Z,15.30
2018-09-22T17:12:37.873Z,15.40
2018-09-22T17:15:06.000Z,15.40
2018-09-22T17:17:34.148Z,15.30
2018-09-22T17:20:02.279Z,15.20
2018-09-22T17:22:30.418Z,15.10
2018-09-22T17:24:58.543Z,14.90
2018-09-22T17:27:26.704Z,14.90
2018-09-22T17:29:54.877Z,14.70
2018-09-22T17:32:23.020Z,14.60
2018-09-22T17:34:51.157Z,14.70
2018-09-22T17:37:19.300Z,14.50
2018-09-22T17:39:47.440Z,14.40
2018-09-22T17:42:15.562Z,14.40
2018-09-22T17:44:43.698Z,14.30
2018-09-22T17:47:11.830Z,14.40
2018-09-22T17:49:39.976Z,14.40
2018-09-22T17:52:08.094Z,14.40
2018-09-22T17:54:36.215Z,14.30
2018-09-22T17:57:04.337Z,14.20
2018-09-22T17:59:32.479Z,14.20
2018-09-22T18:02:01.843Z,14.30
2018-09-22T18:04:30.019Z,14.30
2018-09-22T18:06:58.197Z,14.10
2018-09-22T18:09:26.450Z,13.90
2018-09-22T18:11:54.575Z,13.80
2018-09-22T18:14:22.719Z,13.90
2018-09-22T18:16:50.895Z,14.00
2018-09-22T18:19:19.053Z,13.80
2018-09-22T18:21:47.269Z,13.90
2018-09-22T18:24:15.420Z,13.90
2018-09-22T18:26:43.552Z,13.90
2018-09-22T18:29:11.676Z,13.90
2018-09-22T18:31:39.791Z,13.80
2018-09-22T18:34:07.989Z,13.80
2018-09-22T18:36:36.043Z,13.90
2018-09-22T18:39:05.692Z,13.80
2018-09-22T18:41:33.804Z,13.90
2018-09-22T18:44:01.970Z,14.00
2018-09-22T18:46:30.095Z,14.20
2018-09-22T18:48:58.233Z,14.20
2018-09-22T18:51:26.354Z,14.10
2018-09-22T18:53:54.492Z,14.00
2018-09-22T18:56:22.644Z,13.90
2018-09-22T18:58:50.799Z,13.90
2018-09-22T19:01:18.919Z,14.00
2018-09-22T19:03:47.060Z,13.90
2018-09-22T19:06:15.191Z,13.90
2018-09-22T19:08:43.346Z,13.90
2018-09-22T19:11:11.465Z,13.90
2018-09-22T19:13:44.039Z,13.90
2018-09-22T19:16:17.766Z,13.90
2018-09-22T19:18:51.895Z,13.90
2018-09-22T19:21:28.547Z,13.90
2018-09-22T19:24:30.948Z,13.90
2018-09-22T19:27:03.721Z,13.80
2018-09-22T19:29:35.500Z,13.90
2018-09-22T19:32:07.445Z,13.90
2018-09-22T19:34:39.007Z,13.90
2018-09-22T19:37:13.838Z,13.80
2018-09-22T19:39:47.247Z,13.80
2018-09-22T19:42:23.632Z,13.70
2018-09-22T19:44:57.598Z,13.50
2018-09-22T19:47:28.969Z,13.30
2018-09-22T19:50:02.570Z,13.20
2018-09-22T19:52:40.292Z,13.20
2018-09-22T19:55:08.427Z,13.30
2018-09-22T19:57:36.616Z,13.30
2018-09-22T20:00:04.901Z,13.30
2018-09-22T20:02:33.190Z,13.30
2018-09-22T20:05:01.335Z,13.20
2018-09-22T20:07:29.497Z,13.20
2018-09-22T20:09:57.667Z,13.10
2018-09-22T20:12:25.799Z,12.80
2018-09-22T20:14:54.022Z,12.70
2018-09-22T20:17:22.232Z,12.70
2018-09-22T20:19:50.362Z,12.70
2018-09-22T20:22:18.518Z,12.80
2018-09-22T20:24:46.672Z,12.90
2018-09-22T20:27:14.808Z,13.10
2018-09-22T20:29:43.418Z,13.20
2018-09-22T20:32:11.551Z,13.30
2018-09-22T20:34:39.758Z,13.40
2018-09-22T20:37:07.915Z,13.40
2018-09-22T20:39:36.067Z,13.40
2018-09-22T20:42:04.203Z,13.50
2018-09-22T20:44:32.386Z,13.50
2018-09-22T20:47:00.537Z,13.60
2018-09-22T20:49:28.668Z,13.60
2018-09-22T20:51:56.822Z,13.60
2018-09-22T20:54:24.950Z,13.60
2018-09-22T20:56:53.132Z,13.60
2018-09-22T20:59:21.367Z,13.70
2018-09-22T21:01:49.545Z,13.60
2018-09-22T21:04:17.696Z,13.50
2018-09-22T21:06:45.847Z,13.60
2018-09-22T21:09:13.989Z,13.60
2018-09-22T21:11:42.180Z,13.60
2018-09-22T21:14:10.367Z,13.60
2018-09-22T21:16:38.847Z,13.60
2018-09-22T21:19:07.083Z,13.50
2018-09-22T21:21:35.286Z,13.40
2018-09-22T21:24:03.422Z,12.90
2018-09-22T21:26:31.568Z,12.70
2018-09-22T21:28:59.678Z,12.60
2018-09-22T21:31:27.832Z,12.60
2018-09-22T21:33:55.988Z,12.40
2018-09-22T21:36:24.147Z,12.20
2018-09-22T21:38:52.302Z,12.10
2018-09-22T21:41:20.500Z,12.10
2018-09-22T21:43:48.642Z,12.10
2018-09-22T21:46:16.769Z,12.00
2018-09-22T21:48:44.883Z,12.00
2018-09-22T21:51:13.028Z,12.00
2018-09-22T21:53:41.180Z,11.90
2018-09-22T21:56:09.416Z,12.00
2018-09-22T21:58:37.581Z,12.10
2018-09-22T22:01:09.964Z,12.10
2018-09-22T22:03:38.102Z,12.00
2018-09-22T22:06:06.234Z,12.10
2018-09-22T22:08:34.386Z,12.00
2018-09-22T22:11:02.495Z,12.00
2018-09-22T22:13:30.613Z,11.90
2018-09-22T22:15:58.764Z,12.00
2018-09-22T22:18:26.902Z,11.90
2018-09-22T22:20:55.035Z,12.00
2018-09-22T22:23:23.173Z,12.00
2018-09-22T22:25:51.303Z,12.00
2018-09-22T22:28:19.422Z,12.00
2018-09-22T22:30:47.532Z,12.00
2018-09-22T22:33:15.647Z,12.10
2018-09-22T22:35:43.747Z,12.20
2018-09-22T22:38:11.863Z,12.10
2018-09-22T22:40:39.958Z,12.20
2018-09-22T22:43:08.120Z,12.00
2018-09-22T22:45:36.238Z,12.00
2018-09-22T22:48:04.451Z,12.00
2018-09-22T22:50:32.562Z,11.80
2018-09-22T22:53:00.681Z,11.70
2018-09-22T22:55:28.782Z,11.60
2018-09-22T22:57:56.919Z,11.50
2018-09-22T23:00:25.035Z,11.50
2018-09-22T23:02:53.248Z,11.60
2018-09-22T23:05:21.353Z,11.50
2018-09-22T23:07:49.478Z,11.50
2018-09-22T23:10:17.595Z,11.60
2018-09-22T23:12:45.728Z,11.50
2018-09-22T23:15:13.836Z,11.60
2018-09-22T23:17:41.939Z,11.60
2018-09-22T23:20:10.048Z,11.60
2018-09-22T23:22:38.187Z,11.70
2018-09-22T23:25:06.294Z,11.70
2018-09-22T23:27:34.407Z,11.70
2018-09-22T23:30:02.519Z,11.70
2018-09-22T23:32:30.638Z,11.80
2018-09-22T23:34:58.749Z,11.70
2018-09-22T23:37:26.891Z,11.60
2018-09-22T23:39:55.002Z,11.60
2018-09-22T23:42:23.160Z,11.60
2018-09-22T23:44:51.377Z,11.50
2018-09-22T23:47:19.459Z,11.40
2018-09-22T23:49:47.578Z,11.40
2018-09-22T23:52:15.687Z,11.50
2018-09-22T23:54:43.807Z,11.60
2018-09-22T23:57:11.920Z,11.70
2018-09-22T23:59:40.047Z,11.80
